createdAt,value
2023-02-24T00:01:51.468Z,96766.47
2023-02-24T00:04:20.826Z,96771.63
2023-02-24T00:06:48.393Z,96769.81
2023-02-24T00:09:20.924Z,96767.41
2023-02-24T00:11:57.283Z,96763.72
2023-02-24T00:14:26.903Z,96757.94
2023-02-24T00:16:54.375Z,96762.59
2023-02-24T00:19:24.205Z,96755.13
2023-02-24T00:21:54.325Z,96741.44
2023-02-24T00:24:24.097Z,96741.16
2023-02-24T00:26:55.608Z,96742.22
2023-02-24T00:29:24.395Z,96741.94
2023-02-24T00:32:00.194Z,96740.69
2023-02-24T00:34:28.668Z,96736.28
2023-02-24T00:36:57.365Z,96742.34
2023-02-24T00:39:35.850Z,96741.13
2023-02-24T00:42:05.669Z,96731.84
2023-02-24T00:44:40.099Z,96727.59
2023-02-24T00:47:08.989Z,96729.72
2023-02-24T00:49:42.599Z,96722.31
2023-02-24T00:52:15.956Z,96726.66
2023-02-24T00:54:44.259Z,96724.22
2023-02-24T00:57:11.952Z,96718.09
2023-02-24T00:59:39.155Z,96712.34
2023-02-24T01:02:07.456Z,96707.75
2023-02-24T01:04:34.332Z,96712.19
2023-02-24T01:07:01.839Z,96703.78
2023-02-24T01:09:32.084Z,96712.31
2023-02-24T01:12:22.459Z,96708.91
2023-02-24T01:14:51.333Z,96721.06
2023-02-24T01:17:19.404Z,96710.94
2023-02-24T01:19:49.233Z,96715.94
2023-02-24T01:22:17.916Z,96711.38
2023-02-24T01:24:47.173Z,96721.84
2023-02-24T01:27:15.343Z,96731.50
2023-02-24T01:29:41.988Z,96719.88
2023-02-24T01:32:14.400Z,96718.16
2023-02-24T01:34:42.609Z,96710.88
2023-02-24T01:37:10.142Z,96720.91
2023-02-24T01:39:37.304Z,96717.31
2023-02-24T01:42:06.558Z,96724.38
2023-02-24T01:44:33.412Z,96726.38
2023-02-24T01:47:04.188Z,96728.13
2023-02-24T01:49:38.757Z,96718.78
2023-02-24T01:52:11.544Z,96710.50
2023-02-24T01:54:43.162Z,96714.38
2023-02-24T01:57:16.657Z,96712.75
2023-02-24T01:59:46.104Z,96716.09
2023-02-24T02:02:14.850Z,96715.19
2023-02-24T02:04:49.588Z,96707.72
2023-02-24T02:07:18.765Z,96708.91
2023-02-24T02:09:47.521Z,96709.19
2023-02-24T02:12:14.313Z,96708.94
2023-02-24T02:14:52.455Z,96697.22
2023-02-24T02:17:41.740Z,96692.25
2023-02-24T02:20:39.064Z,96684.50
2023-02-24T02:23:17.950Z,96678.88
2023-02-24T02:26:24.195Z,96675.91
2023-02-24T02:29:17.412Z,96688.19
2023-02-24T02:32:09.232Z,96680.97
2023-02-24T02:34:57.503Z,96683.66
2023-02-24T02:37:24.686Z,96676.66
2023-02-24T02:39:59.040Z,96680.28
2023-02-24T02:42:30.336Z,96672.81
2023-02-24T02:45:09.337Z,96674.53
2023-02-24T02:47:54.079Z,96669.91
2023-02-24T02:50:46.087Z,96669.75
2023-02-24T02:53:26.640Z,96654.56
2023-02-24T02:55:59.863Z,96656.84
2023-02-24T02:58:31.914Z,96657.31
2023-02-24T03:01:02.864Z,96658.06
2023-02-24T03:03:40.725Z,96651.53
2023-02-24T03:06:31.620Z,96638.63
2023-02-24T03:09:11.471Z,96638.63
2023-02-24T03:11:39.611Z,96639.69
2023-02-24T03:14:12.207Z,96625.34
2023-02-24T03:16:41.891Z,96619.91
2023-02-24T03:19:11.253Z,96616.91
2023-02-24T03:21:47.454Z,96607.19
2023-02-24T03:24:17.923Z,96612.03
2023-02-24T03:27:06.993Z,96597.00
2023-02-24T03:29:48.864Z,96596.44
2023-02-24T03:32:25.478Z,96585.16
2023-02-24T03:35:11.207Z,96586.38
2023-02-24T03:37:38.249Z,96573.94
2023-02-24T03:40:11.813Z,96575.66
2023-02-24T03:42:42.250Z,96580.34
2023-02-24T03:45:09.778Z,96579.59
2023-02-24T03:47:37.056Z,96575.38
2023-02-24T03:50:15.178Z,96571.84
2023-02-24T03:52:58.148Z,96564.75
2023-02-24T03:55:31.243Z,96570.03
2023-02-24T03:58:04.428Z,96565.91
2023-02-24T04:00:51.165Z,96554.81
2023-02-24T04:04:02.484Z,96563.53
2023-02-24T04:06:49.868Z,96557.84
2023-02-24T04:09:29.384Z,96559.66
2023-02-24T04:12:31.315Z,96554.50
2023-02-24T04:15:24.310Z,96562.69
2023-02-24T04:18:04.769Z,96568.03
2023-02-24T04:20:39.887Z,96564.88
2023-02-24T04:23:13.918Z,96568.50
2023-02-24T04:25:46.208Z,96564.22
2023-02-24T04:28:14.004Z,96574.41
2023-02-24T04:30:48.474Z,96566.69
2023-02-24T04:33:15.815Z,96559.81
2023-02-24T04:35:48.721Z,96558.94
2023-02-24T04:38:15.629Z,96554.94
2023-02-24T04:40:42.677Z,96548.72
2023-02-24T04:43:09.483Z,96544.22
2023-02-24T04:45:36.457Z,96545.88
2023-02-24T04:48:03.714Z,96547.97
2023-02-24T04:50:36.008Z,96528.09
2023-02-24T04:53:09.788Z,96527.97
2023-02-24T04:55:40.223Z,96530.84
2023-02-24T04:58:10.423Z,96522.16
2023-02-24T05:00:40.493Z,96517.06
2023-02-24T05:03:10.934Z,96523.97
2023-02-24T05:05:37.738Z,96509.72
2023-02-24T05:08:10.378Z,96510.50
2023-02-24T05:10:43.988Z,96508.50
2023-02-24T05:13:18.952Z,96511.69
2023-02-24T05:15:48.019Z,96504.09
2023-02-24T05:18:17.365Z,96503.03
2023-02-24T05:21:04.510Z,96497.75
2023-02-24T05:23:34.257Z,96500.00
2023-02-24T05:26:03.492Z,96498.47
2023-02-24T05:28:32.013Z,96501.41
2023-02-24T05:31:10.655Z,96508.84
2023-02-24T05:33:39.089Z,96498.34
2023-02-24T05:36:09.518Z,96500.31
2023-02-24T05:38:38.414Z,96503.34
2023-02-24T05:41:17.213Z,96498.44
2023-02-24T05:43:48.693Z,96504.72
2023-02-24T05:46:16.396Z,96509.56
2023-02-24T05:48:44.051Z,96512.41
2023-02-24T05:51:12.641Z,96511.97
2023-02-24T05:53:42.861Z,96528.16
2023-02-24T05:56:11.099Z,96519.06
2023-02-24T05:58:40.469Z,96527.88
2023-02-24T06:01:16.448Z,96533.91
2023-02-24T06:03:48.153Z,96531.22
2023-02-24T06:06:16.263Z,96532.34
2023-02-24T06:08:50.102Z,96529.97
2023-02-24T06:11:19.359Z,96540.16
2023-02-24T06:13:49.443Z,96532.88
2023-02-24T06:16:18.387Z,96534.81
2023-02-24T06:18:49.996Z,96545.91
2023-02-24T06:21:17.139Z,96541.50
2023-02-24T06:23:45.065Z,96536.00
2023-02-24T06:26:19.345Z,96541.97
2023-02-24T06:28:48.116Z,96533.75
2023-02-24T06:31:15.199Z,96542.56
2023-02-24T06:33:42.146Z,96551.13
2023-02-24T06:36:08.872Z,96545.69
2023-02-24T06:38:36.922Z,96540.09
2023-02-24T06:41:10.974Z,96545.84
2023-02-24T06:43:46.211Z,96550.25
2023-02-24T06:46:15.519Z,96559.38
2023-02-24T06:48:42.796Z,96567.75
2023-02-24T06:51:15.691Z,96565.09
2023-02-24T06:53:45.781Z,96566.59
2023-02-24T06:56:19.835Z,96577.31
2023-02-24T06:58:52.274Z,96578.34
2023-02-24T07:01:22.139Z,96580.00
2023-02-24T07:04:07.637Z,96575.81
2023-02-24T07:06:38.362Z,96585.91
2023-02-24T07:09:08.909Z,96586.88
2023-02-24T07:11:37.482Z,96586.63
2023-02-24T07:14:07.919Z,96583.81
2023-02-24T07:16:35.532Z,96580.91
2023-02-24T07:19:04.983Z,96580.31
2023-02-24T07:21:39.642Z,96582.53
2023-02-24T07:24:08.570Z,96588.13
2023-02-24T07:26:35.287Z,96579.50
2023-02-24T07:29:06.537Z,96578.13
2023-02-24T07:31:34.593Z,96582.38
2023-02-24T07:34:02.295Z,96582.47
2023-02-24T07:36:30.560Z,96579.66
2023-02-24T07:38:58.893Z,96570.28
2023-02-24T07:41:26.701Z,96574.25
2023-02-24T07:43:54.799Z,96570.16
2023-02-24T07:46:24.697Z,96552.16
2023-02-24T07:48:52.791Z,96556.16
2023-02-24T07:51:23.576Z,96545.75
2023-02-24T07:53:53.125Z,96544.00
2023-02-24T07:56:27.067Z,96554.41
2023-02-24T07:59:08.132Z,96546.94
2023-02-24T08:01:40.365Z,96549.97
2023-02-24T08:04:09.331Z,96550.47
2023-02-24T08:06:39.335Z,96553.50
2023-02-24T08:09:18.698Z,96549.75
2023-02-24T08:11:54.688Z,96549.97
2023-02-24T08:14:24.388Z,96560.06
2023-02-24T08:16:59.514Z,96565.31
2023-02-24T08:19:39.583Z,96564.53
2023-02-24T08:22:24.204Z,96572.75
2023-02-24T08:24:56.698Z,96561.19
2023-02-24T08:27:25.285Z,96566.97
2023-02-24T08:30:01.638Z,96568.00
2023-02-24T08:32:46.890Z,96591.13
2023-02-24T08:35:18.801Z,96591.03
2023-02-24T08:37:48.070Z,96606.56
2023-02-24T08:40:31.647Z,96613.84
2023-02-24T08:43:35.320Z,96626.56
2023-02-24T08:46:13.994Z,96641.66
2023-02-24T08:48:43.301Z,96654.91
2023-02-24T08:51:28.677Z,96653.53
2023-02-24T08:54:15.670Z,96659.38
2023-02-24T08:56:49.317Z,96674.84
2023-02-24T08:59:38.571Z,96677.22
2023-02-24T09:02:18.666Z,96696.50
2023-02-24T09:04:47.145Z,96710.88
2023-02-24T09:07:23.689Z,96695.81
2023-02-24T09:09:56.351Z,96699.94
2023-02-24T09:12:29.186Z,96697.66
2023-02-24T09:15:08.711Z,96702.66
2023-02-24T09:17:49.982Z,96707.22
2023-02-24T09:20:38.841Z,96714.94
2023-02-24T09:23:08.965Z,96717.78
2023-02-24T09:25:41.379Z,96716.34
2023-02-24T09:28:10.074Z,96708.41
2023-02-24T09:30:51.577Z,96725.91
2023-02-24T09:33:28.557Z,96727.06
2023-02-24T09:36:10.790Z,96720.38
2023-02-24T09:38:58.837Z,96733.72
2023-02-24T09:41:55.808Z,96741.56
2023-02-24T09:44:39.949Z,96747.63
2023-02-24T09:47:19.048Z,96767.88
2023-02-24T09:50:04.561Z,96795.19
2023-02-24T09:52:41.667Z,96778.28
2023-02-24T09:55:25.249Z,96786.69
2023-02-24T09:58:18.611Z,96804.09
2023-02-24T10:01:21.074Z,96801.84
2023-02-24T10:04:06.241Z,96808.09
2023-02-24T10:06:42.763Z,96811.28
2023-02-24T10:09:26.992Z,96818.25
2023-02-24T10:12:04.742Z,96810.31
2023-02-24T10:14:44.649Z,96803.84
2023-02-24T10:17:24.104Z,96807.28
2023-02-24T10:20:00.141Z,96797.88
2023-02-24T10:22:50.850Z,96806.13
2023-02-24T10:25:36.498Z,96807.78
2023-02-24T10:28:36.346Z,96823.75
2023-02-24T10:31:30.000Z,96835.78
2023-02-24T10:34:06.411Z,96845.53
2023-02-24T10:36:37.888Z,96838.25
2023-02-24T10:39:20.503Z,96845.59
2023-02-24T10:41:58.840Z,96827.75
2023-02-24T10:44:36.446Z,96820.75
2023-02-24T10:47:17.897Z,96827.81
2023-02-24T10:49:58.883Z,96816.44
2023-02-24T10:52:50.642Z,96816.53
2023-02-24T10:55:47.452Z,96811.09
2023-02-24T10:58:28.167Z,96790.28
2023-02-24T11:01:12.009Z,96789.09
2023-02-24T11:04:01.530Z,96786.09
2023-02-24T11:06:41.314Z,96781.75
2023-02-24T11:09:32.335Z,96791.97
2023-02-24T11:12:25.732Z,96788.78
2023-02-24T11:15:14.317Z,96781.22
2023-02-24T11:17:57.007Z,96782.84
2023-02-24T11:20:49.488Z,96789.78
2023-02-24T11:23:22.216Z,96766.34
2023-02-24T11:25:58.357Z,96756.13
2023-02-24T11:28:41.556Z,96759.09
2023-02-24T11:31:28.052Z,96752.59
2023-02-24T11:34:09.478Z,96759.25
2023-02-24T11:36:45.085Z,96763.25
2023-02-24T11:39:43.777Z,96746.09
2023-02-24T11:42:15.839Z,96758.41
2023-02-24T11:45:03.015Z,96748.81
2023-02-24T11:47:37.248Z,96740.91
2023-02-24T11:50:17.994Z,96735.47
2023-02-24T11:52:47.343Z,96728.84
2023-02-24T11:55:42.643Z,96728.91
2023-02-24T11:58:35.693Z,96720.47
2023-02-24T12:01:17.218Z,96703.47
2023-02-24T12:03:54.453Z,96687.38
2023-02-24T12:06:28.850Z,96690.63
2023-02-24T12:09:03.288Z,96711.81
2023-02-24T12:11:39.287Z,96726.69
2023-02-24T12:14:20.080Z,96707.34
2023-02-24T12:16:53.385Z,96699.94
2023-02-24T12:19:29.638Z,96713.16
2023-02-24T12:22:05.648Z,96721.69
2023-02-24T12:24:32.500Z,96719.84
2023-02-24T12:27:09.329Z,96714.38
2023-02-24T12:30:06.749Z,96706.63
2023-02-24T12:32:48.506Z,96689.41
2023-02-24T12:35:19.926Z,96720.63
2023-02-24T12:38:11.488Z,96712.09
2023-02-24T12:40:47.984Z,96712.56
2023-02-24T12:43:49.823Z,96720.91
2023-02-24T12:46:33.749Z,96702.94
2023-02-24T12:49:34.083Z,96698.38
2023-02-24T12:52:36.890Z,96702.50
2023-02-24T12:55:30.048Z,96679.22
2023-02-24T12:58:21.181Z,96679.78
2023-02-24T13:01:00.003Z,96666.56
2023-02-24T13:03:26.669Z,96668.53
2023-02-24T13:06:13.346Z,96659.69
2023-02-24T13:08:59.066Z,96663.22
2023-02-24T13:11:37.237Z,96657.41
2023-02-24T13:14:13.310Z,96651.19
2023-02-24T13:16:40.082Z,96647.84
2023-02-24T13:19:28.412Z,96641.28
2023-02-24T13:21:58.440Z,96644.78
2023-02-24T13:24:26.367Z,96632.31
2023-02-24T13:27:03.787Z,96623.19
2023-02-24T13:29:30.508Z,96624.41
2023-02-24T13:31:57.769Z,96614.81
2023-02-24T13:34:45.062Z,96595.94
2023-02-24T13:37:11.751Z,96606.88
2023-02-24T13:39:44.444Z,96595.59
2023-02-24T13:42:20.349Z,96606.13
2023-02-24T13:45:03.208Z,96581.31
2023-02-24T13:47:32.925Z,96579.63
2023-02-24T13:50:20.178Z,96576.44
2023-02-24T13:52:46.805Z,96577.22
2023-02-24T13:55:30.951Z,96581.16
2023-02-24T13:58:00.608Z,96567.03
2023-02-24T14:00:59.952Z,96576.75
2023-02-24T14:03:28.790Z,96564.28
2023-02-24T14:05:55.686Z,96559.72
2023-02-24T14:08:35.630Z,96553.47
2023-02-24T14:11:06.710Z,96560.91
2023-02-24T14:13:34.428Z,96548.59
2023-02-24T14:16:04.874Z,96542.03
2023-02-24T14:18:31.526Z,96537.59
2023-02-24T14:20:58.456Z,96538.53
2023-02-24T14:23:27.589Z,96529.97
2023-02-24T14:26:13.973Z,96525.38
2023-02-24T14:28:42.023Z,96499.13
2023-02-24T14:31:13.078Z,96493.31
2023-02-24T14:33:42.039Z,96503.53
2023-02-24T14:36:21.022Z,96484.66
2023-02-24T14:39:01.040Z,96491.00
2023-02-24T14:41:27.878Z,96482.75
2023-02-24T14:43:55.412Z,96460.13
2023-02-24T14:46:23.965Z,96452.94
2023-02-24T14:48:56.284Z,96449.13
2023-02-24T14:51:28.016Z,96429.56
2023-02-24T14:53:59.339Z,96417.38
2023-02-24T14:56:32.662Z,96395.50
2023-02-24T14:59:17.125Z,96380.19
2023-02-24T15:01:50.850Z,96372.41
2023-02-24T15:04:26.282Z,96352.94
2023-02-24T15:06:53.206Z,96346.84
2023-02-24T15:09:23.853Z,96333.72
2023-02-24T15:11:53.430Z,96308.44
2023-02-24T15:14:24.202Z,96295.75
2023-02-24T15:16:56.003Z,96281.78
2023-02-24T15:19:37.197Z,96262.91
2023-02-24T15:22:17.618Z,96258.22
2023-02-24T15:24:44.338Z,96226.59
2023-02-24T15:27:13.978Z,96220.34
2023-02-24T15:29:43.055Z,96197.28
2023-02-24T15:32:21.171Z,96189.38
2023-02-24T15:34:48.258Z,96183.06
2023-02-24T15:37:23.930Z,96164.97
2023-02-24T15:39:52.395Z,96153.78
2023-02-24T15:42:28.752Z,96164.03
2023-02-24T15:44:58.435Z,96135.44
2023-02-24T15:47:32.849Z,96136.81
2023-02-24T15:49:59.725Z,96130.28
2023-02-24T15:52:28.940Z,96126.19
2023-02-24T15:54:58.124Z,96124.38
2023-02-24T15:57:25.716Z,96105.53
2023-02-24T15:59:52.741Z,96107.16
2023-02-24T16:02:21.502Z,96094.44
2023-02-24T16:04:49.783Z,96077.22
2023-02-24T16:07:21.270Z,96078.75
2023-02-24T16:09:50.729Z,96075.69
2023-02-24T16:12:22.001Z,96073.56
2023-02-24T16:14:56.078Z,96056.13
2023-02-24T16:17:35.658Z,96047.19
2023-02-24T16:20:08.604Z,96052.38
2023-02-24T16:22:35.870Z,96060.22
2023-02-24T16:25:03.734Z,96052.78
2023-02-24T16:27:30.828Z,96038.84
2023-02-24T16:29:58.735Z,96024.41
2023-02-24T16:32:27.302Z,96011.25
2023-02-24T16:34:54.184Z,96000.94
2023-02-24T16:37:23.896Z,95995.06
2023-02-24T16:39:50.917Z,95994.91
2023-02-24T16:42:18.937Z,95977.53
2023-02-24T16:44:50.116Z,95985.66
2023-02-24T16:47:23.845Z,95970.94
2023-02-24T16:49:51.568Z,95957.66
2023-02-24T16:52:19.564Z,95956.28
2023-02-24T16:54:47.784Z,95955.69
2023-02-24T16:57:14.684Z,95951.38
2023-02-24T16:59:41.442Z,95932.63
2023-02-24T17:02:18.917Z,95935.09
2023-02-24T17:04:45.687Z,95939.94
2023-02-24T17:07:12.384Z,95948.41
2023-02-24T17:09:39.056Z,95949.44
2023-02-24T17:12:05.892Z,95939.47
2023-02-24T17:14:32.597Z,95944.91
2023-02-24T17:17:02.072Z,95944.47
2023-02-24T17:19:28.901Z,95946.00
2023-02-24T17:21:55.737Z,95941.88
2023-02-24T17:24:22.700Z,95957.66
2023-02-24T17:26:49.393Z,95954.75
2023-02-24T17:29:16.266Z,95954.72
2023-02-24T17:31:43.191Z,95947.03
2023-02-24T17:34:10.198Z,95949.75
2023-02-24T17:36:36.839Z,95952.00
2023-02-24T17:39:03.696Z,95942.34
2023-02-24T17:41:30.513Z,95943.50
2023-02-24T17:43:57.271Z,95932.16
2023-02-24T17:46:24.403Z,95928.06
2023-02-24T17:48:51.209Z,95912.03
2023-02-24T17:51:20.027Z,95903.69
2023-02-24T17:53:46.797Z,95888.97
2023-02-24T17:56:13.671Z,95890.22
2023-02-24T17:58:40.603Z,95887.34
2023-02-24T18:01:07.722Z,95881.63
2023-02-24T18:03:35.962Z,95878.44
2023-02-24T18:06:12.871Z,95879.97
2023-02-24T18:08:40.782Z,95890.09
2023-02-24T18:11:09.942Z,95885.84
2023-02-24T18:13:36.575Z,95887.06
2023-02-24T18:16:08.731Z,95881.75
2023-02-24T18:18:35.606Z,95888.56
2023-02-24T18:21:04.310Z,95899.66
2023-02-24T18:23:31.910Z,95894.03
2023-02-24T18:26:06.344Z,95884.66
2023-02-24T18:28:33.778Z,95884.03
2023-02-24T18:31:01.282Z,95881.31
2023-02-24T18:33:28.124Z,95884.84
2023-02-24T18:36:01.810Z,95875.88
2023-02-24T18:38:29.493Z,95876.94
2023-02-24T18:41:09.820Z,95881.16
2023-02-24T18:43:37.306Z,95881.03
2023-02-24T18:46:08.424Z,95880.28
2023-02-24T18:48:35.321Z,95875.59
2023-02-24T18:51:02.285Z,95869.06
2023-02-24T18:53:34.277Z,95866.47
2023-02-24T18:56:03.065Z,95876.03
2023-02-24T18:58:30.270Z,95866.94
2023-02-24T19:00:57.139Z,95875.56
2023-02-24T19:03:24.633Z,95876.94
2023-02-24T19:05:51.385Z,95891.03
2023-02-24T19:08:18.284Z,95901.94
2023-02-24T19:10:45.098Z,95902.25
2023-02-24T19:13:12.523Z,95908.16
2023-02-24T19:15:39.651Z,95910.59
2023-02-24T19:18:06.499Z,95930.69
2023-02-24T19:20:33.156Z,95923.13
2023-02-24T19:23:01.382Z,95931.47
2023-02-24T19:25:28.122Z,95933.44
2023-02-24T19:27:54.954Z,95943.25
2023-02-24T19:30:21.896Z,95938.56
2023-02-24T19:32:49.620Z,95941.47
2023-02-24T19:35:16.577Z,95940.84
2023-02-24T19:37:43.350Z,95944.00
2023-02-24T19:40:10.777Z,95949.16
2023-02-24T19:42:37.546Z,95931.94
2023-02-24T19:45:05.088Z,95942.19
2023-02-24T19:47:31.702Z,95932.19
2023-02-24T19:49:58.422Z,95940.81
2023-02-24T19:52:25.094Z,95937.00
2023-02-24T19:54:51.881Z,95929.31
2023-02-24T19:57:18.534Z,95916.25
2023-02-24T19:59:45.274Z,95922.94
2023-02-24T20:02:11.881Z,95915.38
2023-02-24T20:04:38.595Z,95907.97
2023-02-24T20:07:05.289Z,95917.50
2023-02-24T20:09:32.859Z,95912.50
2023-02-24T20:12:01.928Z,95919.06
2023-02-24T20:14:29.650Z,95920.88
2023-02-24T20:16:56.353Z,95912.94
2023-02-24T20:19:23.253Z,95910.25
2023-02-24T20:21:50.090Z,95915.53
2023-02-24T20:24:17.886Z,95908.56
2023-02-24T20:26:47.342Z,95913.88
2023-02-24T20:29:15.539Z,95918.09
2023-02-24T20:31:42.518Z,95915.53
2023-02-24T20:34:10.727Z,95921.88
2023-02-24T20:36:37.792Z,95919.75
2023-02-24T20:39:08.078Z,95917.47
2023-02-24T20:41:34.936Z,95920.97
2023-02-24T20:44:01.631Z,95933.09
2023-02-24T20:46:30.726Z,95929.75
2023-02-24T20:49:00.633Z,95919.28
2023-02-24T20:51:28.220Z,95907.06
2023-02-24T20:53:58.366Z,95900.22
2023-02-24T20:56:27.964Z,95899.19
2023-02-24T20:59:01.072Z,95900.25
2023-02-24T21:01:29.388Z,95889.59
2023-02-24T21:03:56.519Z,95881.28
2023-02-24T21:06:24.286Z,95873.72
2023-02-24T21:08:53.297Z,95870.50
2023-02-24T21:11:20.174Z,95882.78
2023-02-24T21:13:48.848Z,95890.38
2023-02-24T21:16:17.351Z,95893.66
2023-02-24T21:18:45.836Z,95893.25
2023-02-24T21:21:15.364Z,95901.56
2023-02-24T21:23:43.179Z,95899.09
2023-02-24T21:26:11.113Z,95889.69
2023-02-24T21:28:37.866Z,95886.22
2023-02-24T21:31:09.862Z,95892.56
2023-02-24T21:33:37.049Z,95887.13
2023-02-24T21:36:06.771Z,95891.03
2023-02-24T21:38:34.475Z,95886.69
2023-02-24T21:41:02.493Z,95883.38
2023-02-24T21:43:29.604Z,95885.94
2023-02-24T21:45:56.443Z,95893.50
2023-02-24T21:48:23.119Z,95900.78
2023-02-24T21:51:00.893Z,95890.78
2023-02-24T21:53:27.746Z,95906.09
2023-02-24T21:56:16.721Z,95910.31
2023-02-24T21:58:46.443Z,95911.81
2023-02-24T22:01:19.113Z,95902.75
2023-02-24T22:03:46.359Z,95905.59
2023-02-24T22:06:17.427Z,95918.78
2023-02-24T22:08:45.724Z,95913.16
2023-02-24T22:11:14.959Z,95919.31
2023-02-24T22:13:43.517Z,95912.44
2023-02-24T22:16:13.190Z,95920.56
2023-02-24T22:18:40.032Z,95922.22
2023-02-24T22:21:11.868Z,95923.00
2023-02-24T22:23:38.979Z,95929.16
2023-02-24T22:26:07.688Z,95932.50
2023-02-24T22:28:36.018Z,95933.53
2023-02-24T22:31:03.090Z,95951.50
2023-02-24T22:33:33.486Z,95930.28
2023-02-24T22:36:08.826Z,95943.75
2023-02-24T22:38:36.972Z,95941.81
2023-02-24T22:41:07.201Z,95950.22
2023-02-24T22:43:34.450Z,95977.69
2023-02-24T22:46:04.377Z,95970.06
2023-02-24T22:48:32.629Z,95964.47
2023-02-24T22:51:01.425Z,95963.81
2023-02-24T22:53:30.461Z,95956.00
2023-02-24T22:55:57.637Z,95947.50
2023-02-24T22:58:25.106Z,95959.75
2023-02-24T23:00:53.781Z,95953.25
2023-02-24T23:03:24.880Z,95953.06
2023-02-24T23:06:19.364Z,95962.00
2023-02-24T23:08:47.710Z,95963.22
2023-02-24T23:11:21.116Z,95971.31
2023-02-24T23:13:49.936Z,95972.66
2023-02-24T23:16:22.109Z,95965.97
2023-02-24T23:18:50.936Z,95976.06
2023-02-24T23:21:25.002Z,95975.03
2023-02-24T23:23:57.027Z,95976.72
2023-02-24T23:26:32.473Z,95976.06
2023-02-24T23:28:59.703Z,95986.72
2023-02-24T23:31:27.194Z,95972.06
2023-02-24T23:33:55.057Z,95983.56
2023-02-24T23:36:23.391Z,95988.72
2023-02-24T23:38:50.574Z,95986.16
2023-02-24T23:41:17.706Z,95986.50
2023-02-24T23:43:44.403Z,95985.28
2023-02-24T23:46:12.990Z,95991.34
2023-02-24T23:48:39.984Z,95988.88
2023-02-24T23:51:09.046Z,95990.97
2023-02-24T23:53:40.340Z,95992.31
2023-02-24T23:56:15.905Z,95992.03
2023-02-24T23:58:42.895Z,95999.75
